Accueil
METAR-TAF:

METAR-TAF

Aéroports :

Buochs, Suisse

latitude: 46-58-28N, longitude: 8-23-49E, altitude: 449 m

Observation

Le bulletin a été fait il y a 25 minutes, à 23:20 UTC
Vent 6 kt de nord-ouest, variant entre ouest et nord
Température 2°C
Humidité 87%
Pression 1020 hPa
Visibilité 10 km ou plus
Nuages fragmentés à une hauteur de 1200 ft
faible bruine

METAR: LSZC 292320Z AUTO 32006KT 260V010 9999 -DZ BKN012 02/00 Q1020

Heure: 01:45 (23:45 UTC)


TAF: absent

Observations et prévisions météorologiques de plus de 4000 aéroports (messages METAR et TAF).

Les stations disponibles sont représentées par des disques jaunes et rouges sur la carte.

Passer la souris dessus pour voir le nom de la station.

Cliquer dessus pour voir les observations et prévisions météorologiques.

Pour changer de carte: cliquez sur les boutons verts avec une croix noire pour zoomer, sur le bouton vert avec un tiret pour effectuer un zoom arrière, ou sur les flèches vertes pour les cartes adjacentes.


METAR-TAF: